sensor_id;sensor_type;location;lat;lon;timestamp;P1;durP1;ratioP1;P2;durP2;ratioP2
52512;SDS011;38422;53.172;6.974;2023-04-06T00:01:39;6.28;;;4.70;;
52512;SDS011;38422;53.172;6.974;2023-04-06T00:04:05;8.20;;;5.07;;
52512;SDS011;38422;53.172;6.974;2023-04-06T00:06:31;7.22;;;5.15;;
52512;SDS011;38422;53.172;6.974;2023-04-06T00:08:57;7.47;;;5.32;;
52512;SDS011;38422;53.172;6.974;2023-04-06T00:11:23;6.78;;;5.47;;
52512;SDS011;38422;53.172;6.974;2023-04-06T00:13:50;8.45;;;5.65;;
52512;SDS011;38422;53.172;6.974;2023-04-06T00:16:16;8.35;;;5.43;;
52512;SDS011;38422;53.172;6.974;2023-04-06T00:18:42;7.93;;;5.20;;
52512;SDS011;38422;53.172;6.974;2023-04-06T00:21:07;7.25;;;5.20;;
52512;SDS011;38422;53.172;6.974;2023-04-06T00:23:36;7.47;;;4.95;;
52512;SDS011;38422;53.172;6.974;2023-04-06T00:26:01;8.38;;;5.32;;
52512;SDS011;38422;53.172;6.974;2023-04-06T00:28:27;7.63;;;5.55;;
52512;SDS011;38422;53.172;6.974;2023-04-06T00:33:21;7.20;;;5.20;;
52512;SDS011;38422;53.172;6.974;2023-04-06T00:35:47;8.13;;;5.47;;
52512;SDS011;38422;53.172;6.974;2023-04-06T00:38:13;5.88;;;4.63;;
52512;SDS011;38422;53.172;6.974;2023-04-06T00:40:40;7.05;;;5.35;;
52512;SDS011;38422;53.172;6.974;2023-04-06T00:43:06;8.50;;;5.47;;
52512;SDS011;38422;53.172;6.974;2023-04-06T00:45:34;7.35;;;5.40;;
52512;SDS011;38422;53.172;6.974;2023-04-06T00:48:00;8.27;;;5.70;;
52512;SDS011;38422;53.172;6.974;2023-04-06T00:50:27;7.18;;;5.38;;
52512;SDS011;38422;53.172;6.974;2023-04-06T00:52:53;8.93;;;5.40;;
52512;SDS011;38422;53.172;6.974;2023-04-06T00:55:19;8.50;;;5.53;;
52512;SDS011;38422;53.172;6.974;2023-04-06T00:57:45;9.68;;;5.75;;
52512;SDS011;38422;53.172;6.974;2023-04-06T01:00:11;8.15;;;5.40;;
52512;SDS011;38422;53.172;6.974;2023-04-06T01:02:37;7.72;;;5.03;;
52512;SDS011;38422;53.172;6.974;2023-04-06T01:05:03;11.18;;;5.88;;
52512;SDS011;38422;53.172;6.974;2023-04-06T01:07:30;8.32;;;5.68;;
52512;SDS011;38422;53.172;6.974;2023-04-06T01:09:56;7.57;;;5.60;;
52512;SDS011;38422;53.172;6.974;2023-04-06T01:12:21;8.13;;;5.53;;
52512;SDS011;38422;53.172;6.974;2023-04-06T01:14:47;7.82;;;5.70;;
52512;SDS011;38422;53.172;6.974;2023-04-06T01:17:13;8.55;;;5.65;;
52512;SDS011;38422;53.172;6.974;2023-04-06T01:19:39;9.23;;;5.60;;
52512;SDS011;38422;53.172;6.974;2023-04-06T01:22:05;7.50;;;5.15;;
52512;SDS011;38422;53.172;6.974;2023-04-06T01:24:32;7.53;;;5.68;;
52512;SDS011;38422;53.172;6.974;2023-04-06T01:26:58;8.77;;;5.82;;
52512;SDS011;38422;53.172;6.974;2023-04-06T01:29:24;8.25;;;5.75;;
52512;SDS011;38422;53.172;6.974;2023-04-06T01:31:50;8.20;;;5.50;;
52512;SDS011;38422;53.172;6.974;2023-04-06T01:34:15;8.32;;;6.10;;
52512;SDS011;38422;53.172;6.974;2023-04-06T01:36:41;8.35;;;6.38;;
52512;SDS011;38422;53.172;6.974;2023-04-06T01:39:07;9.23;;;6.20;;
52512;SDS011;38422;53.172;6.974;2023-04-06T01:41:33;8.57;;;6.20;;
52512;SDS011;38422;53.172;6.974;2023-04-06T01:43:59;8.52;;;5.65;;
52512;SDS011;38422;53.172;6.974;2023-04-06T01:46:25;8.77;;;6.43;;
52512;SDS011;38422;53.172;6.974;2023-04-06T01:48:51;8.35;;;6.10;;
52512;SDS011;38422;53.172;6.974;2023-04-06T01:51:17;8.27;;;6.10;;
52512;SDS011;38422;53.172;6.974;2023-04-06T01:53:43;8.70;;;6.03;;
52512;SDS011;38422;53.172;6.974;2023-04-06T01:56:08;7.72;;;5.93;;
52512;SDS011;38422;53.172;6.974;2023-04-06T01:58:34;9.48;;;6.28;;
52512;SDS011;38422;53.172;6.974;2023-04-06T02:01:00;9.43;;;6.40;;
52512;SDS011;38422;53.172;6.974;2023-04-06T02:03:26;8.40;;;6.28;;
52512;SDS011;38422;53.172;6.974;2023-04-06T02:05:52;9.57;;;5.95;;
52512;SDS011;38422;53.172;6.974;2023-04-06T02:08:18;9.27;;;6.15;;
52512;SDS011;38422;53.172;6.974;2023-04-06T02:10:43;9.07;;;6.38;;
52512;SDS011;38422;53.172;6.974;2023-04-06T02:13:09;8.75;;;6.70;;
52512;SDS011;38422;53.172;6.974;2023-04-06T02:15:35;9.00;;;6.40;;
52512;SDS011;38422;53.172;6.974;2023-04-06T02:18:01;8.85;;;5.97;;
52512;SDS011;38422;53.172;6.974;2023-04-06T02:20:26;8.00;;;5.78;;
52512;SDS011;38422;53.172;6.974;2023-04-06T02:22:52;7.38;;;6.10;;
52512;SDS011;38422;53.172;6.974;2023-04-06T02:25:18;10.40;;;7.07;;
52512;SDS011;38422;53.172;6.974;2023-04-06T02:27:43;8.70;;;6.07;;
52512;SDS011;38422;53.172;6.974;2023-04-06T02:30:09;8.00;;;5.90;;
52512;SDS011;38422;53.172;6.974;2023-04-06T02:32:36;8.15;;;6.28;;
52512;SDS011;38422;53.172;6.974;2023-04-06T02:35:01;8.50;;;6.35;;
52512;SDS011;38422;53.172;6.974;2023-04-06T02:37:27;8.65;;;6.28;;
52512;SDS011;38422;53.172;6.974;2023-04-06T02:39:53;8.85;;;5.97;;
52512;SDS011;38422;53.172;6.974;2023-04-06T02:42:19;9.60;;;6.70;;
52512;SDS011;38422;53.172;6.974;2023-04-06T02:44:45;8.98;;;6.10;;
52512;SDS011;38422;53.172;6.974;2023-04-06T02:47:11;12.20;;;6.47;;
52512;SDS011;38422;53.172;6.974;2023-04-06T02:49:36;9.85;;;6.13;;
52512;SDS011;38422;53.172;6.974;2023-04-06T02:52:02;8.85;;;6.38;;
52512;SDS011;38422;53.172;6.974;2023-04-06T02:54:28;8.93;;;6.45;;
52512;SDS011;38422;53.172;6.974;2023-04-06T02:56:54;8.40;;;6.40;;
52512;SDS011;38422;53.172;6.974;2023-04-06T02:59:20;9.07;;;6.25;;
52512;SDS011;38422;53.172;6.974;2023-04-06T03:01:45;10.43;;;6.28;;
52512;SDS011;38422;53.172;6.974;2023-04-06T03:04:11;9.95;;;6.43;;
52512;SDS011;38422;53.172;6.974;2023-04-06T03:06:37;10.15;;;6.50;;
52512;SDS011;38422;53.172;6.974;2023-04-06T03:09:03;9.50;;;6.03;;
52512;SDS011;38422;53.172;6.974;2023-04-06T03:11:32;8.88;;;6.00;;
52512;SDS011;38422;53.172;6.974;2023-04-06T03:13:57;8.80;;;6.55;;
52512;SDS011;38422;53.172;6.974;2023-04-06T03:16:24;9.50;;;6.07;;
52512;SDS011;38422;53.172;6.974;2023-04-06T03:18:50;11.00;;;6.32;;
52512;SDS011;38422;53.172;6.974;2023-04-06T03:21:15;9.27;;;6.57;;
52512;SDS011;38422;53.172;6.974;2023-04-06T03:23:42;9.80;;;6.88;;
52512;SDS011;38422;53.172;6.974;2023-04-06T03:26:08;10.23;;;6.80;;
52512;SDS011;38422;53.172;6.974;2023-04-06T03:28:33;8.18;;;6.15;;
52512;SDS011;38422;53.172;6.974;2023-04-06T03:30:59;8.02;;;6.10;;
52512;SDS011;38422;53.172;6.974;2023-04-06T03:33:25;8.35;;;6.15;;
52512;SDS011;38422;53.172;6.974;2023-04-06T03:35:52;8.93;;;6.63;;
52512;SDS011;38422;53.172;6.974;2023-04-06T03:38:18;9.18;;;6.43;;
52512;SDS011;38422;53.172;6.974;2023-04-06T03:40:44;8.82;;;6.35;;
52512;SDS011;38422;53.172;6.974;2023-04-06T03:43:10;8.63;;;6.45;;
52512;SDS011;38422;53.172;6.974;2023-04-06T03:45:36;8.63;;;6.50;;
52512;SDS011;38422;53.172;6.974;2023-04-06T03:48:02;8.68;;;6.45;;
52512;SDS011;38422;53.172;6.974;2023-04-06T03:50:28;8.27;;;6.45;;
52512;SDS011;38422;53.172;6.974;2023-04-06T03:52:54;8.35;;;6.22;;
52512;SDS011;38422;53.172;6.974;2023-04-06T03:55:20;8.82;;;6.13;;
52512;SDS011;38422;53.172;6.974;2023-04-06T03:57:46;8.10;;;5.97;;
52512;SDS011;38422;53.172;6.974;2023-04-06T04:00:12;8.10;;;6.43;;
52512;SDS011;38422;53.172;6.974;2023-04-06T04:02:38;9.30;;;6.50;;
52512;SDS011;38422;53.172;6.974;2023-04-06T04:05:04;9.00;;;6.18;;
52512;SDS011;38422;53.172;6.974;2023-04-06T04:07:30;9.13;;;6.03;;
52512;SDS011;38422;53.172;6.974;2023-04-06T04:09:55;10.32;;;6.78;;
52512;SDS011;38422;53.172;6.974;2023-04-06T04:12:21;8.43;;;6.32;;
52512;SDS011;38422;53.172;6.974;2023-04-06T04:14:47;9.40;;;6.57;;
52512;SDS011;38422;53.172;6.974;2023-04-06T04:17:13;10.15;;;6.85;;
52512;SDS011;38422;53.172;6.974;2023-04-06T04:19:38;7.60;;;5.78;;
52512;SDS011;38422;53.172;6.974;2023-04-06T04:22:04;8.77;;;6.93;;
52512;SDS011;38422;53.172;6.974;2023-04-06T04:24:31;9.27;;;6.32;;
52512;SDS011;38422;53.172;6.974;2023-04-06T04:26:57;9.48;;;6.57;;
52512;SDS011;38422;53.172;6.974;2023-04-06T04:29:23;8.50;;;6.28;;
52512;SDS011;38422;53.172;6.974;2023-04-06T04:31:49;9.55;;;6.65;;
52512;SDS011;38422;53.172;6.974;2023-04-06T04:34:15;9.37;;;6.23;;
52512;SDS011;38422;53.172;6.974;2023-04-06T04:36:41;7.93;;;6.20;;
52512;SDS011;38422;53.172;6.974;2023-04-06T04:39:07;10.02;;;6.38;;
52512;SDS011;38422;53.172;6.974;2023-04-06T04:41:33;10.20;;;6.70;;
52512;SDS011;38422;53.172;6.974;2023-04-06T04:43:59;8.13;;;6.10;;
52512;SDS011;38422;53.172;6.974;2023-04-06T04:46:25;10.00;;;6.22;;
52512;SDS011;38422;53.172;6.974;2023-04-06T04:48:52;8.43;;;6.03;;
52512;SDS011;38422;53.172;6.974;2023-04-06T04:51:18;9.02;;;5.90;;
52512;SDS011;38422;53.172;6.974;2023-04-06T04:53:45;8.65;;;6.35;;
52512;SDS011;38422;53.172;6.974;2023-04-06T04:56:10;9.18;;;6.05;;
52512;SDS011;38422;53.172;6.974;2023-04-06T04:58:36;8.48;;;6.13;;
52512;SDS011;38422;53.172;6.974;2023-04-06T05:01:02;10.25;;;6.68;;
52512;SDS011;38422;53.172;6.974;2023-04-06T05:03:28;9.48;;;5.93;;
52512;SDS011;38422;53.172;6.974;2023-04-06T05:05:53;15.93;;;6.45;;
52512;SDS011;38422;53.172;6.974;2023-04-06T05:08:20;11.10;;;6.45;;
52512;SDS011;38422;53.172;6.974;2023-04-06T05:10:45;9.65;;;6.10;;
52512;SDS011;38422;53.172;6.974;2023-04-06T05:13:13;10.05;;;6.28;;
52512;SDS011;38422;53.172;6.974;2023-04-06T05:15:39;13.73;;;6.55;;
52512;SDS011;38422;53.172;6.974;2023-04-06T05:18:06;12.80;;;6.50;;
52512;SDS011;38422;53.172;6.974;2023-04-06T05:20:33;14.18;;;6.78;;
52512;SDS011;38422;53.172;6.974;2023-04-06T05:22:59;9.65;;;6.10;;
52512;SDS011;38422;53.172;6.974;2023-04-06T05:25:25;11.20;;;6.47;;
52512;SDS011;38422;53.172;6.974;2023-04-06T05:27:51;9.88;;;5.72;;
52512;SDS011;38422;53.172;6.974;2023-04-06T05:30:17;8.13;;;6.03;;
52512;SDS011;38422;53.172;6.974;2023-04-06T05:32:43;9.27;;;5.85;;
52512;SDS011;38422;53.172;6.974;2023-04-06T05:35:09;9.93;;;6.50;;
52512;SDS011;38422;53.172;6.974;2023-04-06T05:37:36;9.68;;;6.30;;
52512;SDS011;38422;53.172;6.974;2023-04-06T05:40:02;10.65;;;5.95;;
52512;SDS011;38422;53.172;6.974;2023-04-06T05:42:38;8.60;;;5.97;;
52512;SDS011;38422;53.172;6.974;2023-04-06T05:45:05;10.73;;;6.18;;
52512;SDS011;38422;53.172;6.974;2023-04-06T05:47:31;9.63;;;6.55;;
52512;SDS011;38422;53.172;6.974;2023-04-06T05:49:57;9.65;;;5.90;;
52512;SDS011;38422;53.172;6.974;2023-04-06T05:52:23;9.85;;;6.22;;
52512;SDS011;38422;53.172;6.974;2023-04-06T05:54:48;10.82;;;5.80;;
52512;SDS011;38422;53.172;6.974;2023-04-06T05:57:15;12.05;;;6.10;;
52512;SDS011;38422;53.172;6.974;2023-04-06T05:59:41;9.47;;;5.67;;
52512;SDS011;38422;53.172;6.974;2023-04-06T06:02:07;7.68;;;5.63;;
52512;SDS011;38422;53.172;6.974;2023-04-06T06:04:33;7.50;;;5.50;;
52512;SDS011;38422;53.172;6.974;2023-04-06T06:06:59;8.73;;;5.35;;
52512;SDS011;38422;53.172;6.974;2023-04-06T06:09:25;7.72;;;5.43;;
52512;SDS011;38422;53.172;6.974;2023-04-06T06:11:51;9.25;;;5.25;;
52512;SDS011;38422;53.172;6.974;2023-04-06T06:14:17;6.78;;;5.40;;
52512;SDS011;38422;53.172;6.974;2023-04-06T06:16:43;9.75;;;5.88;;
52512;SDS011;38422;53.172;6.974;2023-04-06T06:19:09;7.43;;;5.47;;
52512;SDS011;38422;53.172;6.974;2023-04-06T06:21:35;9.25;;;5.55;;
52512;SDS011;38422;53.172;6.974;2023-04-06T06:24:01;8.30;;;5.50;;
52512;SDS011;38422;53.172;6.974;2023-04-06T06:26:27;10.25;;;5.70;;
52512;SDS011;38422;53.172;6.974;2023-04-06T06:28:52;7.85;;;5.25;;
52512;SDS011;38422;53.172;6.974;2023-04-06T06:31:18;8.10;;;5.68;;
52512;SDS011;38422;53.172;6.974;2023-04-06T06:33:50;8.05;;;5.72;;
52512;SDS011;38422;53.172;6.974;2023-04-06T06:36:16;9.45;;;5.43;;
52512;SDS011;38422;53.172;6.974;2023-04-06T06:38:43;7.65;;;5.50;;
52512;SDS011;38422;53.172;6.974;2023-04-06T06:41:09;8.32;;;5.30;;
52512;SDS011;38422;53.172;6.974;2023-04-06T06:43:35;7.90;;;5.13;;
52512;SDS011;38422;53.172;6.974;2023-04-06T06:46:01;8.35;;;5.70;;
52512;SDS011;38422;53.172;6.974;2023-04-06T06:48:28;8.93;;;5.50;;
52512;SDS011;38422;53.172;6.974;2023-04-06T06:50:54;8.85;;;5.85;;
52512;SDS011;38422;53.172;6.974;2023-04-06T06:53:20;10.80;;;6.13;;
52512;SDS011;38422;53.172;6.974;2023-04-06T06:55:46;7.75;;;5.38;;
52512;SDS011;38422;53.172;6.974;2023-04-06T07:00:39;6.95;;;5.15;;
52512;SDS011;38422;53.172;6.974;2023-04-06T07:03:05;8.60;;;5.70;;
52512;SDS011;38422;53.172;6.974;2023-04-06T07:05:31;7.43;;;5.70;;
52512;SDS011;38422;53.172;6.974;2023-04-06T07:07:57;8.10;;;5.15;;
52512;SDS011;38422;53.172;6.974;2023-04-06T07:10:22;10.68;;;5.20;;
52512;SDS011;38422;53.172;6.974;2023-04-06T07:12:48;8.48;;;5.57;;
52512;SDS011;38422;53.172;6.974;2023-04-06T07:15:14;10.48;;;5.53;;
52512;SDS011;38422;53.172;6.974;2023-04-06T07:17:41;8.27;;;5.20;;
52512;SDS011;38422;53.172;6.974;2023-04-06T07:20:07;9.98;;;5.78;;
52512;SDS011;38422;53.172;6.974;2023-04-06T07:22:33;8.63;;;5.43;;
52512;SDS011;38422;53.172;6.974;2023-04-06T07:24:58;8.50;;;5.43;;
52512;SDS011;38422;53.172;6.974;2023-04-06T07:27:24;7.30;;;5.03;;
52512;SDS011;38422;53.172;6.974;2023-04-06T07:29:50;9.07;;;5.63;;
52512;SDS011;38422;53.172;6.974;2023-04-06T07:32:15;9.90;;;5.80;;
52512;SDS011;38422;53.172;6.974;2023-04-06T07:34:41;8.40;;;5.80;;
52512;SDS011;38422;53.172;6.974;2023-04-06T07:37:07;8.40;;;5.63;;
52512;SDS011;38422;53.172;6.974;2023-04-06T07:39:33;6.72;;;4.95;;
52512;SDS011;38422;53.172;6.974;2023-04-06T07:41:59;7.53;;;5.53;;
52512;SDS011;38422;53.172;6.974;2023-04-06T07:44:25;8.35;;;4.90;;
52512;SDS011;38422;53.172;6.974;2023-04-06T07:46:51;9.18;;;5.13;;
52512;SDS011;38422;53.172;6.974;2023-04-06T07:49:17;10.30;;;5.68;;
52512;SDS011;38422;53.172;6.974;2023-04-06T07:51:43;6.80;;;4.80;;
52512;SDS011;38422;53.172;6.974;2023-04-06T07:54:08;8.60;;;5.25;;
52512;SDS011;38422;53.172;6.974;2023-04-06T07:56:34;8.38;;;5.80;;
52512;SDS011;38422;53.172;6.974;2023-04-06T07:59:00;8.38;;;5.03;;
52512;SDS011;38422;53.172;6.974;2023-04-06T08:01:27;7.97;;;5.35;;
52512;SDS011;38422;53.172;6.974;2023-04-06T08:03:55;8.77;;;6.07;;
52512;SDS011;38422;53.172;6.974;2023-04-06T08:06:21;8.18;;;5.30;;
52512;SDS011;38422;53.172;6.974;2023-04-06T08:08:47;10.13;;;5.40;;
52512;SDS011;38422;53.172;6.974;2023-04-06T08:11:12;8.52;;;5.50;;
52512;SDS011;38422;53.172;6.974;2023-04-06T08:13:38;8.13;;;5.55;;
52512;SDS011;38422;53.172;6.974;2023-04-06T08:16:04;8.88;;;4.80;;
52512;SDS011;38422;53.172;6.974;2023-04-06T08:18:30;8.07;;;5.60;;
52512;SDS011;38422;53.172;6.974;2023-04-06T08:20:56;8.57;;;5.70;;
52512;SDS011;38422;53.172;6.974;2023-04-06T08:23:22;8.82;;;5.90;;
52512;SDS011;38422;53.172;6.974;2023-04-06T08:25:47;8.60;;;5.35;;
52512;SDS011;38422;53.172;6.974;2023-04-06T08:28:13;9.82;;;5.82;;
52512;SDS011;38422;53.172;6.974;2023-04-06T08:30:40;7.38;;;5.47;;
52512;SDS011;38422;53.172;6.974;2023-04-06T08:33:07;7.45;;;5.90;;
52512;SDS011;38422;53.172;6.974;2023-04-06T08:35:33;7.80;;;5.50;;
52512;SDS011;38422;53.172;6.974;2023-04-06T08:37:59;8.13;;;5.65;;
52512;SDS011;38422;53.172;6.974;2023-04-06T08:40:25;6.55;;;5.45;;
52512;SDS011;38422;53.172;6.974;2023-04-06T08:42:54;8.23;;;5.70;;
52512;SDS011;38422;53.172;6.974;2023-04-06T08:45:21;9.52;;;5.57;;
52512;SDS011;38422;53.172;6.974;2023-04-06T08:47:51;8.45;;;5.65;;
52512;SDS011;38422;53.172;6.974;2023-04-06T08:50:20;9.23;;;5.72;;
52512;SDS011;38422;53.172;6.974;2023-04-06T08:52:47;8.20;;;5.75;;
52512;SDS011;38422;53.172;6.974;2023-04-06T08:55:14;9.63;;;5.63;;
52512;SDS011;38422;53.172;6.974;2023-04-06T08:57:40;8.00;;;5.40;;
52512;SDS011;38422;53.172;6.974;2023-04-06T09:00:07;8.43;;;5.70;;
52512;SDS011;38422;53.172;6.974;2023-04-06T09:02:37;8.77;;;5.47;;
52512;SDS011;38422;53.172;6.974;2023-04-06T09:05:04;7.50;;;5.28;;
52512;SDS011;38422;53.172;6.974;2023-04-06T09:07:30;7.35;;;5.28;;
52512;SDS011;38422;53.172;6.974;2023-04-06T09:09:56;7.20;;;5.55;;
52512;SDS011;38422;53.172;6.974;2023-04-06T09:12:31;8.40;;;5.72;;
52512;SDS011;38422;53.172;6.974;2023-04-06T09:14:58;7.25;;;5.60;;
52512;SDS011;38422;53.172;6.974;2023-04-06T09:19:55;7.78;;;5.80;;
52512;SDS011;38422;53.172;6.974;2023-04-06T09:22:21;7.43;;;5.35;;
52512;SDS011;38422;53.172;6.974;2023-04-06T09:24:51;8.13;;;5.30;;
52512;SDS011;38422;53.172;6.974;2023-04-06T09:27:19;7.43;;;5.88;;
52512;SDS011;38422;53.172;6.974;2023-04-06T09:30:16;8.35;;;5.65;;
52512;SDS011;38422;53.172;6.974;2023-04-06T09:32:44;7.68;;;5.40;;
52512;SDS011;38422;53.172;6.974;2023-04-06T09:35:13;7.38;;;5.43;;
52512;SDS011;38422;53.172;6.974;2023-04-06T09:37:40;7.67;;;5.73;;
52512;SDS011;38422;53.172;6.974;2023-04-06T09:40:06;8.07;;;5.63;;
52512;SDS011;38422;53.172;6.974;2023-04-06T09:42:33;7.88;;;5.60;;
52512;SDS011;38422;53.172;6.974;2023-04-06T09:45:00;7.88;;;5.35;;
52512;SDS011;38422;53.172;6.974;2023-04-06T09:47:26;7.38;;;6.18;;
52512;SDS011;38422;53.172;6.974;2023-04-06T09:49:57;6.60;;;5.43;;
52512;SDS011;38422;53.172;6.974;2023-04-06T09:52:31;8.05;;;5.18;;
52512;SDS011;38422;53.172;6.974;2023-04-06T09:55:02;7.57;;;5.70;;
52512;SDS011;38422;53.172;6.974;2023-04-06T09:57:45;7.18;;;5.05;;
52512;SDS011;38422;53.172;6.974;2023-04-06T10:00:54;7.60;;;5.30;;
52512;SDS011;38422;53.172;6.974;2023-04-06T10:03:40;7.47;;;5.20;;
52512;SDS011;38422;53.172;6.974;2023-04-06T10:06:32;7.70;;;5.70;;
52512;SDS011;38422;53.172;6.974;2023-04-06T10:09:01;8.30;;;5.90;;
52512;SDS011;38422;53.172;6.974;2023-04-06T10:11:29;9.07;;;5.88;;
52512;SDS011;38422;53.172;6.974;2023-04-06T10:13:56;11.30;;;6.32;;
52512;SDS011;38422;53.172;6.974;2023-04-06T10:16:22;8.93;;;6.10;;
52512;SDS011;38422;53.172;6.974;2023-04-06T10:18:51;8.98;;;6.25;;
52512;SDS011;38422;53.172;6.974;2023-04-06T10:21:23;9.07;;;6.45;;
52512;SDS011;38422;53.172;6.974;2023-04-06T10:24:00;9.07;;;7.07;;
52512;SDS011;38422;53.172;6.974;2023-04-06T10:26:31;9.05;;;6.50;;
52512;SDS011;38422;53.172;6.974;2023-04-06T10:29:01;10.02;;;6.70;;
52512;SDS011;38422;53.172;6.974;2023-04-06T10:31:28;10.93;;;7.45;;
52512;SDS011;38422;53.172;6.974;2023-04-06T10:33:55;9.63;;;6.88;;
52512;SDS011;38422;53.172;6.974;2023-04-06T10:36:32;10.23;;;7.35;;
52512;SDS011;38422;53.172;6.974;2023-04-06T10:38:59;11.95;;;8.05;;
52512;SDS011;38422;53.172;6.974;2023-04-06T10:41:43;11.00;;;8.18;;
52512;SDS011;38422;53.172;6.974;2023-04-06T10:44:21;11.68;;;8.50;;
52512;SDS011;38422;53.172;6.974;2023-04-06T10:46:57;12.40;;;8.32;;
52512;SDS011;38422;53.172;6.974;2023-04-06T10:49:25;12.10;;;7.95;;
52512;SDS011;38422;53.172;6.974;2023-04-06T10:51:52;10.57;;;8.45;;
52512;SDS011;38422;53.172;6.974;2023-04-06T10:54:20;12.43;;;9.05;;
52512;SDS011;38422;53.172;6.974;2023-04-06T10:56:47;10.75;;;8.05;;
52512;SDS011;38422;53.172;6.974;2023-04-06T10:59:14;13.10;;;8.25;;
52512;SDS011;38422;53.172;6.974;2023-04-06T11:01:47;11.20;;;8.20;;
52512;SDS011;38422;53.172;6.974;2023-04-06T11:04:15;10.68;;;8.02;;
52512;SDS011;38422;53.172;6.974;2023-04-06T11:06:46;10.20;;;8.35;;
52512;SDS011;38422;53.172;6.974;2023-04-06T11:09:22;12.88;;;8.35;;
52512;SDS011;38422;53.172;6.974;2023-04-06T11:11:52;13.38;;;10.05;;
52512;SDS011;38422;53.172;6.974;2023-04-06T11:14:18;12.82;;;9.23;;
52512;SDS011;38422;53.172;6.974;2023-04-06T11:16:46;12.25;;;9.73;;
52512;SDS011;38422;53.172;6.974;2023-04-06T11:19:16;12.38;;;9.43;;
52512;SDS011;38422;53.172;6.974;2023-04-06T11:21:46;13.83;;;9.50;;
52512;SDS011;38422;53.172;6.974;2023-04-06T11:24:13;13.27;;;10.13;;
52512;SDS011;38422;53.172;6.974;2023-04-06T11:26:48;13.40;;;9.50;;
52512;SDS011;38422;53.172;6.974;2023-04-06T11:29:22;13.63;;;9.65;;
52512;SDS011;38422;53.172;6.974;2023-04-06T11:31:49;13.73;;;10.05;;
52512;SDS011;38422;53.172;6.974;2023-04-06T11:34:23;13.90;;;9.88;;
52512;SDS011;38422;53.172;6.974;2023-04-06T11:37:00;14.23;;;10.48;;
52512;SDS011;38422;53.172;6.974;2023-04-06T11:39:29;13.70;;;10.52;;
52512;SDS011;38422;53.172;6.974;2023-04-06T11:41:59;13.80;;;10.70;;
52512;SDS011;38422;53.172;6.974;2023-04-06T11:44:32;15.38;;;10.30;;
52512;SDS011;38422;53.172;6.974;2023-04-06T11:47:03;13.80;;;10.40;;
52512;SDS011;38422;53.172;6.974;2023-04-06T11:49:30;15.15;;;10.85;;
52512;SDS011;38422;53.172;6.974;2023-04-06T11:51:56;18.55;;;11.52;;
52512;SDS011;38422;53.172;6.974;2023-04-06T11:54:32;16.95;;;11.85;;
52512;SDS011;38422;53.172;6.974;2023-04-06T11:56:59;15.98;;;11.60;;
52512;SDS011;38422;53.172;6.974;2023-04-06T11:59:26;14.40;;;12.20;;
52512;SDS011;38422;53.172;6.974;2023-04-06T12:01:52;14.15;;;10.90;;
52512;SDS011;38422;53.172;6.974;2023-04-06T12:04:18;14.35;;;11.63;;
52512;SDS011;38422;53.172;6.974;2023-04-06T12:06:44;16.77;;;11.52;;
52512;SDS011;38422;53.172;6.974;2023-04-06T12:09:10;15.55;;;12.52;;
52512;SDS011;38422;53.172;6.974;2023-04-06T12:11:36;15.50;;;11.95;;
52512;SDS011;38422;53.172;6.974;2023-04-06T12:14:02;17.17;;;12.07;;
52512;SDS011;38422;53.172;6.974;2023-04-06T12:16:30;15.98;;;11.85;;
52512;SDS011;38422;53.172;6.974;2023-04-06T12:18:56;17.50;;;12.65;;
52512;SDS011;38422;53.172;6.974;2023-04-06T12:21:22;14.80;;;12.82;;
52512;SDS011;38422;53.172;6.974;2023-04-06T12:23:48;16.58;;;12.25;;
52512;SDS011;38422;53.172;6.974;2023-04-06T12:26:14;17.23;;;12.55;;
52512;SDS011;38422;53.172;6.974;2023-04-06T12:28:39;20.35;;;12.95;;
52512;SDS011;38422;53.172;6.974;2023-04-06T12:31:05;15.23;;;11.93;;
52512;SDS011;38422;53.172;6.974;2023-04-06T12:33:31;15.82;;;12.90;;
52512;SDS011;38422;53.172;6.974;2023-04-06T12:35:57;13.88;;;11.45;;
52512;SDS011;38422;53.172;6.974;2023-04-06T12:38:22;16.52;;;12.75;;
52512;SDS011;38422;53.172;6.974;2023-04-06T12:40:48;16.58;;;12.30;;
52512;SDS011;38422;53.172;6.974;2023-04-06T12:43:14;17.73;;;12.52;;
52512;SDS011;38422;53.172;6.974;2023-04-06T12:45:40;15.45;;;12.00;;
52512;SDS011;38422;53.172;6.974;2023-04-06T12:48:06;15.30;;;11.98;;
52512;SDS011;38422;53.172;6.974;2023-04-06T12:50:32;14.75;;;12.13;;
52512;SDS011;38422;53.172;6.974;2023-04-06T12:52:58;15.68;;;12.68;;
52512;SDS011;38422;53.172;6.974;2023-04-06T12:55:23;14.63;;;12.40;;
52512;SDS011;38422;53.172;6.974;2023-04-06T12:57:50;16.20;;;12.18;;
52512;SDS011;38422;53.172;6.974;2023-04-06T13:00:15;15.43;;;12.48;;
52512;SDS011;38422;53.172;6.974;2023-04-06T13:02:41;13.48;;;12.05;;
52512;SDS011;38422;53.172;6.974;2023-04-06T13:05:12;15.15;;;11.75;;
52512;SDS011;38422;53.172;6.974;2023-04-06T13:07:43;14.27;;;11.88;;
52512;SDS011;38422;53.172;6.974;2023-04-06T13:10:09;17.27;;;12.98;;
52512;SDS011;38422;53.172;6.974;2023-04-06T13:12:35;17.73;;;13.00;;
52512;SDS011;38422;53.172;6.974;2023-04-06T13:15:01;15.60;;;13.02;;
52512;SDS011;38422;53.172;6.974;2023-04-06T13:17:27;16.55;;;13.35;;
52512;SDS011;38422;53.172;6.974;2023-04-06T13:19:53;15.20;;;13.00;;
52512;SDS011;38422;53.172;6.974;2023-04-06T13:22:18;15.40;;;13.50;;
52512;SDS011;38422;53.172;6.974;2023-04-06T13:24:44;16.48;;;13.60;;
52512;SDS011;38422;53.172;6.974;2023-04-06T13:27:10;15.40;;;13.07;;
52512;SDS011;38422;53.172;6.974;2023-04-06T13:29:36;16.90;;;12.90;;
52512;SDS011;38422;53.172;6.974;2023-04-06T13:32:02;15.40;;;13.15;;
52512;SDS011;38422;53.172;6.974;2023-04-06T13:34:28;15.93;;;12.93;;
52512;SDS011;38422;53.172;6.974;2023-04-06T13:36:54;17.75;;;13.40;;
52512;SDS011;38422;53.172;6.974;2023-04-06T13:39:20;17.83;;;12.70;;
52512;SDS011;38422;53.172;6.974;2023-04-06T13:41:46;16.10;;;12.85;;
52512;SDS011;38422;53.172;6.974;2023-04-06T13:44:11;17.42;;;13.20;;
52512;SDS011;38422;53.172;6.974;2023-04-06T13:46:37;15.70;;;13.05;;
52512;SDS011;38422;53.172;6.974;2023-04-06T13:49:03;16.08;;;13.02;;
52512;SDS011;38422;53.172;6.974;2023-04-06T13:51:28;16.10;;;13.25;;
52512;SDS011;38422;53.172;6.974;2023-04-06T13:53:55;15.02;;;13.15;;
52512;SDS011;38422;53.172;6.974;2023-04-06T13:56:21;15.35;;;12.52;;
52512;SDS011;38422;53.172;6.974;2023-04-06T13:58:47;17.90;;;13.30;;
52512;SDS011;38422;53.172;6.974;2023-04-06T14:01:12;17.27;;;13.48;;
52512;SDS011;38422;53.172;6.974;2023-04-06T14:03:38;19.48;;;14.38;;
52512;SDS011;38422;53.172;6.974;2023-04-06T14:06:10;17.05;;;13.90;;
52512;SDS011;38422;53.172;6.974;2023-04-06T14:08:36;16.73;;;12.98;;
52512;SDS011;38422;53.172;6.974;2023-04-06T14:11:02;16.45;;;13.05;;
52512;SDS011;38422;53.172;6.974;2023-04-06T14:13:28;17.85;;;12.90;;
52512;SDS011;38422;53.172;6.974;2023-04-06T14:15:54;18.00;;;13.77;;
52512;SDS011;38422;53.172;6.974;2023-04-06T14:18:20;18.60;;;13.55;;
52512;SDS011;38422;53.172;6.974;2023-04-06T14:20:54;16.27;;;12.65;;
52512;SDS011;38422;53.172;6.974;2023-04-06T14:23:20;17.65;;;13.38;;
52512;SDS011;38422;53.172;6.974;2023-04-06T14:25:46;17.60;;;13.30;;
52512;SDS011;38422;53.172;6.974;2023-04-06T14:28:12;15.75;;;13.20;;
52512;SDS011;38422;53.172;6.974;2023-04-06T14:30:38;15.93;;;13.07;;
52512;SDS011;38422;53.172;6.974;2023-04-06T14:33:04;16.77;;;13.10;;
52512;SDS011;38422;53.172;6.974;2023-04-06T14:35:30;17.88;;;13.50;;
52512;SDS011;38422;53.172;6.974;2023-04-06T14:37:57;16.55;;;13.32;;
52512;SDS011;38422;53.172;6.974;2023-04-06T14:40:23;18.65;;;14.00;;
52512;SDS011;38422;53.172;6.974;2023-04-06T14:42:49;15.70;;;12.70;;
52512;SDS011;38422;53.172;6.974;2023-04-06T14:45:20;16.58;;;12.85;;
52512;SDS011;38422;53.172;6.974;2023-04-06T14:47:47;16.20;;;13.07;;